Terminal Aerodrome Forecast
Issued by NWS

Home | Current Version | Previous Version | Text Only | Print | Product List | Glossary On
Versions: 1 2 3 4 5 6 7 8 9 10 11 12 13
000
FTUS44 KEPZ 201738
TAFTCS
TAF
KTCS 201738Z 2018/2118 27020G30KT P6SM FEW100
      TEMPO 2019/2023 27025G35KT
     FM210300 30015G25KT P6SM SKC
     FM211300 20013KT P6SM FEW250=

USA.gov is the U.S. government's official web portal to all federal, state and local government web resources and services.